Time;durP1;ratioP1;P1;durP2;ratioP2;P2;SDS_P1;SDS_P2;PMS_P1;PMS_P2;Temp;Humidity;BMP_temperature;BMP_pressure;BME280_temperature;BME280_humidity;BME280_pressure;Samples;Min_cycle;Max_cycle;Signal;HPM_P1;HPM_P2
2022/07/05 00:01:52;;;;;;;3.20;2.30;;;15.10;99.90;;;;;;5104450;28;20224;-50
2022/07/05 00:04:20;;;;;;;6.72;2.67;;;15.10;99.90;;;;;;5111726;28;20286;-50
2022/07/05 00:09:34;;;;;;;4.00;2.90;;;15.00;99.90;;;;;;5110900;28;20207;-50
2022/07/05 00:12:02;;;;;;;6.73;2.80;;;15.00;99.90;;;;;;5111825;28;20231;-50
2022/07/05 00:14:30;;;;;;;3.67;2.80;;;15.00;99.90;;;;;;5084348;28;20211;-52
2022/07/05 00:17:00;;;;;;;4.27;2.80;;;15.00;99.90;;;;;;5112726;28;20715;-51
2022/07/05 00:19:28;;;;;;;2.90;2.60;;;14.90;99.90;;;;;;5112491;28;20272;-51
2022/07/05 00:21:57;;;;;;;4.13;2.90;;;14.90;99.90;;;;;;5112526;28;20269;-51
2022/07/05 00:24:25;;;;;;;3.67;2.60;;;14.90;99.90;;;;;;5112497;28;20207;-51
2022/07/05 00:26:53;;;;;;;4.77;2.63;;;14.90;99.90;;;;;;5108570;28;20635;-51
2022/07/05 00:29:21;;;;;;;4.87;3.03;;;14.90;99.90;;;;;;5107027;28;20207;-51
2022/07/05 00:31:49;;;;;;;3.50;2.83;;;14.80;99.90;;;;;;5111602;28;20220;-51
2022/07/05 00:34:19;;;;;;;6.70;3.00;;;14.70;99.90;;;;;;5112639;28;20268;-51
2022/07/05 00:36:47;;;;;;;3.77;3.00;;;14.70;99.90;;;;;;5111843;28;20661;-51
2022/07/05 00:39:15;;;;;;;4.90;2.93;;;14.60;99.90;;;;;;5112251;28;20264;-51
2022/07/05 00:41:43;;;;;;;3.97;3.13;;;14.50;99.90;;;;;;5111574;28;20568;-51
2022/07/05 00:44:13;;;;;;;4.87;3.13;;;14.50;99.90;;;;;;5111687;28;20211;-51
2022/07/05 00:46:44;;;;;;;5.43;3.33;;;14.50;99.90;;;;;;5111455;28;20264;-51
2022/07/05 00:49:12;;;;;;;5.37;3.10;;;14.50;99.90;;;;;;5111648;28;20379;-50
2022/07/05 00:51:42;;;;;;;4.77;3.00;;;14.50;99.90;;;;;;5111758;28;20231;-51
2022/07/05 00:54:32;;;;;;;4.43;3.00;;;14.50;99.90;;;;;;5110929;28;20327;-51
2022/07/05 00:57:00;;;;;;;5.40;3.23;;;14.50;99.90;;;;;;5103019;28;20216;-51
2022/07/05 00:59:30;;;;;;;6.53;3.07;;;14.50;99.90;;;;;;5088513;28;20303;-51
2022/07/05 01:01:59;;;;;;;5.03;3.30;;;14.50;99.90;;;;;;5075101;28;20820;-51
2022/07/05 01:04:27;;;;;;;4.97;3.20;;;14.50;99.90;;;;;;5085432;28;20262;-51
2022/07/05 01:06:57;;;;;;;6.23;3.10;;;14.50;99.90;;;;;;5076832;28;20677;-51
2022/07/05 01:09:25;;;;;;;4.27;3.30;;;14.50;99.90;;;;;;5077173;28;20208;-51
2022/07/05 01:11:54;;;;;;;3.73;2.97;;;14.40;99.90;;;;;;5090067;28;20648;-51
2022/07/05 01:14:24;;;;;;;4.97;3.33;;;14.40;99.90;;;;;;5085728;28;20205;-50
2022/07/05 01:16:53;;;;;;;3.77;2.83;;;14.50;99.90;;;;;;5081955;28;20196;-51
2022/07/05 01:19:22;;;;;;;3.30;3.00;;;14.50;99.90;;;;;;5090299;28;20212;-50
2022/07/05 01:21:51;;;;;;;5.13;2.90;;;14.50;99.90;;;;;;5089832;28;20297;-51
2022/07/05 01:24:21;;;;;;;5.80;3.20;;;14.50;99.90;;;;;;5089528;28;20281;-51
2022/07/05 01:26:51;;;;;;;4.70;3.40;;;14.50;99.90;;;;;;5090998;28;20212;-51
2022/07/05 01:29:19;;;;;;;4.27;3.50;;;14.50;99.90;;;;;;5090669;28;20204;-51
2022/07/05 01:31:47;;;;;;;3.87;3.47;;;14.50;99.90;;;;;;5082696;28;20274;-51
2022/07/05 01:34:15;;;;;;;3.90;3.40;;;14.40;99.90;;;;;;5096525;28;20265;-50
2022/07/05 01:36:43;;;;;;;3.33;3.03;;;14.40;99.90;;;;;;5111852;28;20204;-50
2022/07/05 01:39:11;;;;;;;4.23;3.10;;;14.40;99.90;;;;;;5110771;28;20208;-51
2022/07/05 01:41:41;;;;;;;5.60;3.57;;;14.30;99.90;;;;;;5110488;28;20715;-52
2022/07/05 01:44:09;;;;;;;4.27;3.63;;;14.30;99.90;;;;;;5110064;28;20211;-51
2022/07/05 01:46:39;;;;;;;3.63;3.27;;;14.20;99.90;;;;;;5110099;28;20660;-52
2022/07/05 01:49:12;;;;;;;5.50;3.53;;;14.10;99.90;;;;;;5110905;28;20645;-51
2022/07/05 01:51:45;;;;;;;4.90;3.50;;;14.10;99.90;;;;;;5110257;28;20383;-51
2022/07/05 01:54:13;;;;;;;4.70;3.50;;;14.10;99.90;;;;;;5110351;28;20696;-51
2022/07/05 01:56:43;;;;;;;5.53;3.30;;;14.00;99.90;;;;;;5109885;28;20275;-51
2022/07/05 01:59:12;;;;;;;3.73;3.40;;;14.00;99.90;;;;;;5110410;28;20219;-51
2022/07/05 02:01:40;;;;;;;5.03;3.73;;;13.90;99.90;;;;;;5100385;28;20717;-51
2022/07/05 02:04:10;;;;;;;7.07;3.47;;;13.90;99.90;;;;;;5109704;28;20280;-51
2022/07/05 02:06:39;;;;;;;5.27;3.80;;;14.00;99.90;;;;;;5082661;28;20212;-51
2022/07/05 02:09:08;;;;;;;5.27;3.53;;;13.90;99.90;;;;;;5089157;28;20253;-51
2022/07/05 02:11:36;;;;;;;4.17;3.33;;;13.90;99.90;;;;;;5088674;28;20224;-51
2022/07/05 02:14:06;;;;;;;3.93;3.37;;;13.90;99.90;;;;;;5088657;28;20204;-51
2022/07/05 02:16:34;;;;;;;4.23;3.40;;;13.80;99.90;;;;;;5089702;28;20212;-51
2022/07/05 02:19:02;;;;;;;4.80;3.50;;;13.90;99.90;;;;;;5089112;28;20300;-51
2022/07/05 02:21:31;;;;;;;4.13;3.30;;;13.90;99.90;;;;;;5089789;28;20282;-51
2022/07/05 02:23:59;;;;;;;5.23;3.40;;;14.00;99.90;;;;;;5088681;28;20208;-51
2022/07/05 02:26:27;;;;;;;4.40;3.67;;;13.90;99.90;;;;;;5089682;28;20734;-51
2022/07/05 02:28:55;;;;;;;4.80;3.67;;;13.90;99.90;;;;;;5083972;28;20228;-51
2022/07/05 02:31:24;;;;;;;5.23;3.47;;;13.90;99.90;;;;;;5089638;28;20228;-51
2022/07/05 02:33:53;;;;;;;5.73;3.47;;;13.80;99.90;;;;;;5088519;28;20239;-51
2022/07/05 02:36:21;;;;;;;5.63;3.80;;;13.80;99.90;;;;;;5075319;28;20204;-51
2022/07/05 02:38:49;;;;;;;4.20;3.40;;;13.80;99.90;;;;;;5088528;28;20204;-51
2022/07/05 02:41:18;;;;;;;4.33;3.93;;;13.80;99.90;;;;;;5089154;28;20777;-51
2022/07/05 02:43:46;;;;;;;5.60;4.10;;;13.70;99.90;;;;;;5089395;28;20273;-51
2022/07/05 02:46:14;;;;;;;4.13;3.73;;;13.70;99.90;;;;;;5088867;28;20204;-51
2022/07/05 02:48:44;;;;;;;4.83;4.03;;;13.70;99.90;;;;;;5089527;28;20258;-51
2022/07/05 02:51:12;;;;;;;7.60;3.70;;;13.70;99.90;;;;;;5089078;28;20236;-51
2022/07/05 02:53:40;;;;;;;5.77;3.97;;;13.70;99.90;;;;;;5088823;28;20257;-51
2022/07/05 02:56:08;;;;;;;4.30;3.90;;;13.70;99.90;;;;;;5089279;28;20208;-51
2022/07/05 02:58:38;;;;;;;7.07;4.30;;;13.60;99.90;;;;;;5089238;28;20261;-51
2022/07/05 03:01:06;;;;;;;5.97;3.97;;;13.70;99.90;;;;;;5089257;28;20220;-51
2022/07/05 03:03:34;;;;;;;4.93;3.73;;;13.70;99.90;;;;;;5079356;28;20200;-50
2022/07/05 03:06:04;;;;;;;5.70;3.50;;;13.70;99.90;;;;;;5092299;28;20236;-50
2022/07/05 03:08:32;;;;;;;6.90;4.00;;;13.70;99.90;;;;;;5093364;28;20757;-51
2022/07/05 03:11:00;;;;;;;6.57;3.43;;;13.60;99.90;;;;;;5090217;28;20232;-51
2022/07/05 03:13:28;;;;;;;5.30;3.97;;;13.50;99.90;;;;;;5089265;28;20218;-51
2022/07/05 03:15:56;;;;;;;7.03;3.77;;;13.50;99.90;;;;;;5074539;28;20675;-51
2022/07/05 03:18:24;;;;;;;4.10;3.47;;;13.50;99.90;;;;;;5088556;28;20235;-51
2022/07/05 03:20:53;;;;;;;3.73;3.43;;;13.60;99.90;;;;;;5088470;28;20204;-51
2022/07/05 03:23:23;;;;;;;6.80;4.07;;;13.60;99.90;;;;;;5088408;28;20220;-51
2022/07/05 03:25:51;;;;;;;6.53;3.73;;;13.70;99.90;;;;;;5088724;28;20288;-51
2022/07/05 03:28:20;;;;;;;4.03;3.60;;;13.70;99.90;;;;;;5089041;28;20273;-51
2022/07/05 03:30:48;;;;;;;6.07;3.70;;;13.70;99.90;;;;;;5088579;28;20259;-51
2022/07/05 03:33:16;;;;;;;3.93;3.57;;;13.70;99.90;;;;;;5088455;28;20208;-51
2022/07/05 03:35:45;;;;;;;4.80;3.80;;;13.70;99.90;;;;;;5088460;28;20257;-51
2022/07/05 03:38:13;;;;;;;3.90;3.60;;;13.60;99.90;;;;;;5088179;28;20212;-51
2022/07/05 03:40:42;;;;;;;3.97;3.67;;;13.60;99.90;;;;;;5089060;28;20204;-51
2022/07/05 03:43:10;;;;;;;4.20;3.60;;;13.60;99.90;;;;;;5074452;28;20253;-51
2022/07/05 03:45:39;;;;;;;4.40;3.30;;;13.70;99.90;;;;;;5091736;28;20212;-51
2022/07/05 03:48:07;;;;;;;4.00;3.60;;;13.70;99.90;;;;;;5092154;28;20314;-51
2022/07/05 03:50:55;;;;;;;5.47;4.23;;;13.70;99.90;;;;;;5092731;28;20598;-51
2022/07/05 03:53:24;;;;;;;3.93;3.63;;;13.70;99.90;;;;;;5092072;28;20218;-51
2022/07/05 03:55:53;;;;;;;4.00;3.30;;;13.70;99.90;;;;;;5092502;28;20209;-51
2022/07/05 03:58:21;;;;;;;4.00;3.53;;;13.70;99.90;;;;;;5092678;28;20204;-51
2022/07/05 04:00:49;;;;;;;4.20;3.80;;;13.80;99.90;;;;;;5092277;28;20641;-51
2022/07/05 04:03:18;;;;;;;6.17;4.27;;;13.80;99.90;;;;;;5091556;28;20208;-51
2022/07/05 04:05:46;;;;;;;4.07;3.50;;;13.90;99.90;;;;;;5085470;28;20580;-51
2022/07/05 04:08:14;;;;;;;5.03;3.57;;;14.00;99.90;;;;;;5087593;28;20255;-51
2022/07/05 04:10:42;;;;;;;6.27;3.47;;;14.00;99.90;;;;;;5096406;28;20197;-51
2022/07/05 04:13:12;;;;;;;5.90;3.37;;;14.10;99.90;;;;;;5094564;28;20257;-51
2022/07/05 04:15:44;;;;;;;3.90;3.37;;;14.10;99.90;;;;;;5094200;28;20235;-51
2022/07/05 04:18:21;;;;;;;4.37;3.40;;;14.50;99.90;;;;;;5093474;28;20831;-51
2022/07/05 04:20:59;;;;;;;4.27;2.90;;;15.20;99.90;;;;;;5093650;28;20200;-51
2022/07/05 04:23:28;;;;;;;5.68;3.10;;;15.90;99.90;;;;;;5092709;28;20697;-51
2022/07/05 04:25:56;;;;;;;6.07;3.67;;;16.30;99.90;;;;;;5092524;28;20239;-51
2022/07/05 04:28:26;;;;;;;4.03;2.67;;;16.60;99.90;;;;;;5092479;28;20256;-51
2022/07/05 04:30:54;;;;;;;3.05;2.72;;;17.00;99.90;;;;;;5091743;28;20212;-51
2022/07/05 04:33:22;;;;;;;3.38;3.08;;;17.20;99.90;;;;;;5091709;28;20254;-51
2022/07/05 04:35:50;;;;;;;4.90;3.10;;;17.50;99.90;;;;;;5092166;28;20204;-52
2022/07/05 04:38:19;;;;;;;4.28;2.95;;;17.90;99.90;;;;;;5091694;28;20208;-52
2022/07/05 04:40:47;;;;;;;3.50;2.90;;;18.20;99.90;;;;;;5091190;28;20207;-52
2022/07/05 04:43:15;;;;;;;3.85;2.47;;;18.40;99.90;;;;;;5091548;28;20219;-52
2022/07/05 04:45:45;;;;;;;5.10;2.72;;;18.60;99.90;;;;;;5091162;28;20577;-52
2022/07/05 04:48:13;;;;;;;3.22;2.55;;;18.80;99.90;;;;;;5091453;28;20259;-52
2022/07/05 04:50:44;;;;;;;6.03;2.75;;;19.00;99.90;;;;;;5091542;28;20200;-52
2022/07/05 04:53:12;;;;;;;4.43;2.85;;;19.40;99.90;;;;;;5090697;28;20628;-52
2022/07/05 04:55:40;;;;;;;4.50;3.30;;;19.60;99.90;;;;;;5090515;28;20216;-52
2022/07/05 04:58:08;;;;;;;3.92;3.00;;;20.00;99.90;;;;;;5091246;28;20246;-52
2022/07/05 05:00:36;;;;;;;5.90;2.70;;;20.40;99.90;;;;;;5091185;28;20270;-52
2022/07/05 05:03:06;;;;;;;5.97;2.78;;;20.00;99.90;;;;;;5090788;28;20314;-52
2022/07/05 05:05:34;;;;;;;3.53;2.85;;;19.10;99.90;;;;;;5086047;28;20205;-51
2022/07/05 05:08:02;;;;;;;7.22;2.65;;;18.50;99.90;;;;;;5081548;28;20864;-53
2022/07/05 05:10:30;;;;;;;4.38;2.65;;;18.10;99.90;;;;;;5080303;28;20313;-52
2022/07/05 05:12:58;;;;;;;3.60;3.05;;;17.90;99.90;;;;;;5091091;28;20791;-52
2022/07/05 05:15:26;;;;;;;5.38;2.90;;;17.70;99.90;;;;;;5090442;28;20257;-51
2022/07/05 05:17:54;;;;;;;3.67;3.03;;;17.60;99.90;;;;;;5090666;28;20216;-52
2022/07/05 05:20:24;;;;;;;4.95;3.38;;;17.50;99.90;;;;;;5090066;28;20278;-51
2022/07/05 05:22:52;;;;;;;3.75;3.08;;;17.50;99.90;;;;;;5092755;28;20274;-50
2022/07/05 05:25:20;;;;;;;3.75;2.85;;;17.50;99.90;;;;;;5092532;28;20673;-50
2022/07/05 05:27:50;;;;;;;5.35;2.95;;;17.60;99.90;;;;;;5091966;28;20200;-51
2022/07/05 05:30:19;;;;;;;5.25;2.83;;;17.70;99.90;;;;;;5090433;28;20700;-51
2022/07/05 05:32:48;;;;;;;6.22;3.20;;;17.70;99.90;;;;;;5088774;28;20224;-51
2022/07/05 05:35:20;;;;;;;5.72;2.80;;;17.80;99.90;;;;;;5090263;28;20204;-51
2022/07/05 05:37:51;;;;;;;4.05;2.90;;;17.80;99.90;;;;;;5090328;28;20239;-51
2022/07/05 05:40:20;;;;;;;8.20;3.10;;;17.70;99.90;;;;;;5090725;28;20200;-51
2022/07/05 05:42:49;;;;;;;4.03;2.63;;;17.70;99.90;;;;;;5089995;28;20224;-51
2022/07/05 05:45:18;;;;;;;4.72;3.42;;;17.70;99.90;;;;;;5090780;28;20204;-51
2022/07/05 05:47:48;;;;;;;10.27;3.47;;;18.30;99.90;;;;;;5089379;28;20733;-51
2022/07/05 05:50:20;;;;;;;8.70;3.58;;;19.40;99.90;;;;;;5090124;28;20227;-51
2022/07/05 05:52:49;;;;;;;4.57;3.33;;;19.70;99.90;;;;;;5089867;28;20220;-51
2022/07/05 05:55:18;;;;;;;6.47;3.40;;;19.40;99.90;;;;;;5089507;28;20284;-51
2022/07/05 05:57:46;;;;;;;7.45;3.30;;;19.30;99.90;;;;;;5095922;28;20215;-51
2022/07/05 06:00:15;;;;;;;4.03;3.20;;;19.60;99.90;;;;;;5109971;28;20203;-51
2022/07/05 06:02:45;;;;;;;5.40;3.50;;;19.50;99.90;;;;;;5092467;28;20277;-51
2022/07/05 06:05:13;;;;;;;5.38;3.80;;;19.40;99.90;;;;;;5098513;28;20206;-51
2022/07/05 06:07:51;;;;;;;3.72;3.15;;;19.30;99.90;;;;;;5083746;28;20220;-51
2022/07/05 06:10:21;;;;;;;7.63;3.42;;;19.20;99.90;;;;;;5098702;28;20247;-53
2022/07/05 06:12:49;;;;;;;3.67;3.20;;;19.30;99.90;;;;;;5083324;28;20224;-51
2022/07/05 06:15:18;;;;;;;4.28;3.60;;;19.60;99.90;;;;;;5089532;28;20208;-50
2022/07/05 06:17:47;;;;;;;5.40;3.50;;;19.40;99.90;;;;;;5088960;28;20241;-51
2022/07/05 06:20:18;;;;;;;8.82;3.60;;;19.20;99.90;;;;;;5089264;28;20200;-51
2022/07/05 06:22:46;;;;;;;5.90;3.10;;;20.00;99.90;;;;;;5088925;28;20293;-51
2022/07/05 06:25:16;;;;;;;3.58;3.25;;;20.20;99.90;;;;;;5089681;28;20212;-51
2022/07/05 06:27:52;;;;;;;6.50;3.38;;;20.80;99.90;;;;;;5088749;28;20211;-51
2022/07/05 06:30:21;;;;;;;4.95;3.17;;;21.80;99.90;;;;;;5089988;28;20212;-51
2022/07/05 06:32:50;;;;;;;4.22;2.88;;;22.30;99.90;;;;;;5088433;28;20224;-52
2022/07/05 06:35:18;;;;;;;7.03;3.38;;;22.70;99.90;;;;;;5089142;28;20215;-51
2022/07/05 06:37:48;;;;;;;3.15;2.83;;;23.30;99.90;;;;;;5089832;28;20212;-51
2022/07/05 06:40:20;;;;;;;4.78;2.90;;;23.70;99.90;;;;;;5089598;28;20261;-50
2022/07/05 06:42:49;;;;;;;3.42;3.00;;;23.80;99.90;;;;;;5089301;28;20791;-51
2022/07/05 06:45:17;;;;;;;5.35;2.80;;;24.20;99.90;;;;;;5089247;28;20617;-51
2022/07/05 06:47:45;;;;;;;5.22;2.75;;;24.50;99.90;;;;;;5089015;28;20249;-51
2022/07/05 06:50:13;;;;;;;6.68;2.72;;;24.80;99.90;;;;;;5099134;28;20230;-51
2022/07/05 06:52:42;;;;;;;3.50;2.65;;;25.10;99.90;;;;;;5109718;28;20653;-52
2022/07/05 06:55:32;;;;;;;4.22;2.88;;;25.30;99.90;;;;;;5090503;28;20204;-51
2022/07/05 06:58:09;;;;;;;3.97;2.70;;;25.60;99.90;;;;;;5089729;28;20672;-51
2022/07/05 07:00:39;;;;;;;3.70;2.70;;;25.70;99.90;;;;;;5109088;28;20200;-52
2022/07/05 07:03:27;;;;;;;3.05;2.55;;;25.80;99.90;;;;;;5098845;28;20295;-52
2022/07/05 07:06:15;;;;;;;6.68;2.67;;;26.00;99.90;;;;;;5071510;28;20237;-51
2022/07/05 07:11:31;;;;;;;3.63;2.60;;;26.30;99.90;;;;;;5109631;28;20766;-51
2022/07/05 07:13:59;;;;;;;5.30;2.50;;;26.60;99.90;;;;;;5109951;28;20203;-51
2022/07/05 07:16:27;;;;;;;5.47;2.60;;;26.60;99.90;;;;;;5109303;28;20223;-52
2022/07/05 07:18:56;;;;;;;3.28;2.45;;;26.40;99.90;;;;;;5109329;28;20641;-51
2022/07/05 07:21:38;;;;;;;6.40;2.50;;;26.60;99.90;;;;;;5113515;28;20227;-52
2022/07/05 07:24:07;;;;;;;3.20;2.50;;;27.00;99.90;;;;;;5112954;28;20203;-52
2022/07/05 07:29:18;;;;;;;3.65;2.70;;;27.30;98.50;;;;;;5112364;28;20559;-52
2022/07/05 07:31:46;;;;;;;4.32;2.70;;;27.30;99.30;;;;;;5113146;28;20720;-52
2022/07/05 07:34:15;;;;;;;7.45;2.65;;;27.40;97.80;;;;;;5113213;28;20265;-52
2022/07/05 07:36:43;;;;;;;3.88;2.75;;;27.50;98.30;;;;;;5113265;28;20207;-52
2022/07/05 07:39:11;;;;;;;3.20;2.53;;;27.60;97.70;;;;;;5109457;28;20201;-52
2022/07/05 07:41:41;;;;;;;4.82;3.08;;;27.80;97.40;;;;;;5105958;28;20223;-52
2022/07/05 07:44:09;;;;;;;4.75;2.80;;;27.80;96.60;;;;;;5112359;28;20249;-51
2022/07/05 07:46:39;;;;;;;3.92;2.60;;;27.80;96.90;;;;;;5112242;28;20256;-52
2022/07/05 07:49:07;;;;;;;5.13;2.65;;;28.10;97.00;;;;;;5085886;28;20314;-52
2022/07/05 07:51:35;;;;;;;4.60;2.42;;;28.50;95.40;;;;;;5091731;28;20654;-52
2022/07/05 07:54:04;;;;;;;5.28;2.90;;;28.50;95.40;;;;;;5091498;28;20514;-52
2022/07/05 07:56:32;;;;;;;3.50;2.58;;;28.50;94.30;;;;;;5091596;28;20200;-51
2022/07/05 07:59:01;;;;;;;4.43;2.47;;;28.60;94.10;;;;;;5106344;28;20254;-51
2022/07/05 08:01:31;;;;;;;8.63;2.83;;;28.40;94.00;;;;;;5102623;28;20680;-52
2022/07/05 08:03:59;;;;;;;5.65;2.70;;;28.60;94.10;;;;;;5092087;28;20212;-51
2022/07/05 08:06:27;;;;;;;3.67;2.50;;;28.50;95.00;;;;;;5080327;28;20236;-52
2022/07/05 08:08:55;;;;;;;6.10;2.85;;;29.00;95.40;;;;;;5090079;28;20263;-52
2022/07/05 08:11:23;;;;;;;4.55;2.75;;;29.20;94.20;;;;;;5092009;28;20657;-51
2022/07/05 08:13:51;;;;;;;4.65;2.20;;;29.20;93.60;;;;;;5091931;28;20277;-51
2022/07/05 08:16:21;;;;;;;4.32;2.60;;;29.10;93.70;;;;;;5092315;28;20208;-51
2022/07/05 08:21:38;;;;;;;4.30;2.50;;;27.90;92.70;;;;;;5092285;28;20220;-51
2022/07/05 08:24:09;;;;;;;3.38;2.65;;;27.40;93.90;;;;;;5080573;28;20622;-52
2022/07/05 08:26:37;;;;;;;4.00;2.70;;;27.10;94.50;;;;;;5087266;28;20215;-52
2022/07/05 08:29:07;;;;;;;5.18;2.70;;;27.10;94.40;;;;;;5087887;28;20212;-52
2022/07/05 08:31:40;;;;;;;4.65;2.63;;;27.00;94.40;;;;;;5090152;28;20415;-52
2022/07/05 08:34:09;;;;;;;4.65;3.13;;;26.90;94.10;;;;;;5091393;28;20287;-52
2022/07/05 08:36:37;;;;;;;5.53;3.17;;;26.90;93.80;;;;;;5091871;28;20211;-52
2022/07/05 08:39:05;;;;;;;5.25;3.17;;;26.80;93.30;;;;;;5091501;28;20200;-52
2022/07/05 08:41:36;;;;;;;5.28;2.80;;;26.60;93.90;;;;;;5091094;28;20840;-51
2022/07/05 08:44:05;;;;;;;4.90;3.22;;;26.60;94.10;;;;;;5091294;28;20208;-51
2022/07/05 08:46:34;;;;;;;6.55;3.65;;;26.50;93.80;;;;;;5091500;28;20250;-52
2022/07/05 08:49:05;;;;;;;5.65;3.25;;;26.50;93.50;;;;;;5091804;28;20208;-52
2022/07/05 08:51:40;;;;;;;7.55;3.50;;;26.50;93.40;;;;;;5091177;28;20226;-51
2022/07/05 08:54:11;;;;;;;6.25;3.28;;;26.60;94.40;;;;;;5090654;28;20688;-52
2022/07/05 08:56:42;;;;;;;7.55;3.30;;;26.70;94.50;;;;;;5091057;28;20208;-51
2022/07/05 08:59:30;;;;;;;5.90;3.30;;;26.70;94.70;;;;;;5090661;28;20721;-52
2022/07/05 09:02:00;;;;;;;3.58;3.13;;;27.00;95.00;;;;;;5091011;28;20220;-52
2022/07/05 09:04:32;;;;;;;5.38;3.30;;;27.20;94.60;;;;;;5090739;28;20316;-52
2022/07/05 09:07:07;;;;;;;4.82;3.65;;;27.00;94.20;;;;;;5077050;28;20287;-51
2022/07/05 09:09:42;;;;;;;4.88;3.00;;;26.80;93.20;;;;;;5090321;28;20295;-51
2022/07/05 09:12:12;;;;;;;3.55;2.90;;;26.90;93.90;;;;;;5091072;28;20254;-52
2022/07/05 09:14:52;;;;;;;4.95;2.78;;;26.80;93.10;;;;;;5091649;28;20211;-52
2022/07/05 09:17:20;;;;;;;5.13;3.15;;;26.90;94.10;;;;;;5090442;28;20197;-51
2022/07/05 09:20:10;;;;;;;5.28;2.83;;;26.90;93.20;;;;;;5091334;28;20219;-51
2022/07/05 09:22:45;;;;;;;5.47;3.53;;;26.70;92.60;;;;;;5090814;28;20265;-52
2022/07/05 09:25:18;;;;;;;4.80;3.10;;;27.00;93.80;;;;;;5090598;28;20737;-51
2022/07/05 09:27:54;;;;;;;5.03;3.00;;;27.10;93.90;;;;;;5090326;28;20196;-52
2022/07/05 09:30:31;;;;;;;4.70;2.78;;;27.20;93.90;;;;;;5090833;28;20204;-52
2022/07/05 09:33:06;;;;;;;3.78;3.20;;;27.30;92.40;;;;;;5089957;28;20227;-52
2022/07/05 09:35:37;;;;;;;3.55;3.08;;;27.20;91.50;;;;;;5090623;28;20277;-51
2022/07/05 09:38:06;;;;;;;4.30;2.92;;;26.60;91.60;;;;;;5090101;28;20249;-51
2022/07/05 09:40:46;;;;;;;4.60;3.10;;;26.10;91.50;;;;;;5090791;28;20291;-53
2022/07/05 09:43:16;;;;;;;6.45;3.00;;;25.80;91.80;;;;;;5076375;28;20245;-51
2022/07/05 09:45:55;;;;;;;4.30;3.13;;;25.70;92.10;;;;;;5090262;28;20204;-52
2022/07/05 09:48:24;;;;;;;3.15;2.80;;;25.70;92.40;;;;;;5077189;28;20657;-52
2022/07/05 09:51:08;;;;;;;4.72;2.88;;;25.70;93.30;;;;;;5090156;28;20209;-52
2022/07/05 09:53:58;;;;;;;5.45;2.92;;;25.70;92.90;;;;;;5090013;28;20240;-51
2022/07/05 09:56:30;;;;;;;5.18;2.88;;;25.50;93.10;;;;;;5090745;28;20204;-51
2022/07/05 09:59:14;;;;;;;3.55;2.80;;;25.60;93.80;;;;;;5089029;28;20693;-51
2022/07/05 10:01:42;;;;;;;6.15;3.08;;;25.60;94.40;;;;;;5085121;28;20246;-52
2022/07/05 10:04:10;;;;;;;3.70;2.70;;;26.10;94.70;;;;;;5090274;28;20210;-51
2022/07/05 10:06:40;;;;;;;4.57;2.90;;;26.60;94.70;;;;;;5073625;28;20213;-51
2022/07/05 10:09:10;;;;;;;2.92;2.50;;;26.90;93.40;;;;;;5075193;28;20265;-51
2022/07/05 10:11:41;;;;;;;4.32;2.88;;;26.70;93.00;;;;;;5091242;28;20741;-51
2022/07/05 10:14:12;;;;;;;3.72;2.47;;;26.20;92.40;;;;;;5098247;28;20204;-54
2022/07/05 10:16:42;;;;;;;7.22;2.90;;;26.10;93.60;;;;;;5097089;28;20342;-50
2022/07/05 10:19:16;;;;;;;3.45;3.13;;;25.90;93.70;;;;;;5090167;28;20227;-51
2022/07/05 10:21:47;;;;;;;4.80;2.97;;;25.60;93.70;;;;;;5084949;28;20769;-52
2022/07/05 10:24:36;;;;;;;5.95;3.30;;;25.60;93.60;;;;;;5086994;28;20664;-51
2022/07/05 10:27:08;;;;;;;4.88;3.10;;;25.70;94.20;;;;;;5089199;28;20261;-51
2022/07/05 10:29:37;;;;;;;3.03;2.40;;;26.20;95.20;;;;;;5084907;28;20262;-51
2022/07/05 10:32:09;;;;;;;4.82;2.92;;;26.50;92.70;;;;;;5089507;28;20228;-51
2022/07/05 10:34:40;;;;;;;3.15;2.85;;;26.60;92.10;;;;;;5078919;28;20200;-51
2022/07/05 10:37:28;;;;;;;4.75;2.88;;;26.40;91.50;;;;;;5088881;28;20208;-51
2022/07/05 10:39:59;;;;;;;5.15;2.85;;;26.30;92.00;;;;;;5088705;28;20203;-51
2022/07/05 10:42:31;;;;;;;5.38;3.55;;;26.30;92.90;;;;;;5089457;28;20258;-52
2022/07/05 10:45:00;;;;;;;4.82;3.03;;;26.50;92.60;;;;;;5089369;28;20204;-51
2022/07/05 10:47:29;;;;;;;6.03;2.67;;;26.80;92.70;;;;;;5090105;28;20204;-51
2022/07/05 10:50:03;;;;;;;4.28;2.67;;;27.10;93.10;;;;;;5088802;28;20220;-51
2022/07/05 10:52:33;;;;;;;2.92;2.60;;;27.30;92.50;;;;;;5089412;28;20266;-52
2022/07/05 10:55:24;;;;;;;8.25;2.95;;;27.30;91.40;;;;;;5088414;28;20261;-51
2022/07/05 10:58:32;;;;;;;4.32;2.90;;;27.30;91.60;;;;;;5089315;28;20262;-51
2022/07/05 11:01:43;;;;;;;5.13;2.83;;;26.70;91.40;;;;;;5077286;28;20204;-51
2022/07/05 11:04:29;;;;;;;3.25;2.78;;;26.30;90.50;;;;;;5080940;28;20204;-51
2022/07/05 11:06:58;;;;;;;2.95;2.58;;;25.90;90.70;;;;;;5088481;28;20207;-51
2022/07/05 11:09:28;;;;;;;4.93;3.10;;;25.70;91.70;;;;;;5089079;28;20262;-51
2022/07/05 11:12:07;;;;;;;4.78;2.80;;;25.60;91.70;;;;;;5087477;28;20635;-51
2022/07/05 11:15:06;;;;;;;4.50;3.00;;;25.60;91.50;;;;;;5079381;28;20212;-55
2022/07/05 11:17:36;;;;;;;4.97;2.97;;;25.50;92.10;;;;;;5084675;28;20226;-51
2022/07/05 11:20:32;;;;;;;3.33;2.75;;;25.60;91.40;;;;;;5083045;28;20201;-52
2022/07/05 11:23:09;;;;;;;6.00;2.90;;;25.60;90.80;;;;;;5086129;28;20226;-51
2022/07/05 11:25:41;;;;;;;4.60;3.28;;;26.00;90.90;;;;;;5087406;28;20204;-52
2022/07/05 11:28:16;;;;;;;3.58;2.63;;;26.10;91.10;;;;;;5088428;28;20219;-51
2022/07/05 11:30:50;;;;;;;3.67;3.10;;;26.10;91.60;;;;;;5088653;28;20208;-51
2022/07/05 11:33:35;;;;;;;3.88;3.25;;;26.50;91.80;;;;;;5088476;28;20693;-52
2022/07/05 11:36:04;;;;;;;4.05;3.13;;;26.80;90.70;;;;;;5086298;28;20200;-51
2022/07/05 11:38:33;;;;;;;3.42;2.92;;;26.70;90.00;;;;;;5088444;28;20810;-51
2022/07/05 11:41:22;;;;;;;4.35;3.08;;;26.50;91.80;;;;;;5098938;28;20349;-52
2022/07/05 11:43:58;;;;;;;4.90;3.20;;;26.00;91.00;;;;;;5088324;28;20205;-51
2022/07/05 11:46:27;;;;;;;3.47;3.17;;;25.70;91.30;;;;;;5087954;28;20200;-51
2022/07/05 11:49:21;;;;;;;4.78;3.08;;;25.60;92.40;;;;;;5088673;28;20582;-51
2022/07/05 11:52:00;;;;;;;4.35;3.03;;;25.60;91.40;;;;;;5087815;28;20719;-51
2022/07/05 11:54:30;;;;;;;5.40;3.30;;;25.60;90.90;;;;;;5087854;28;20590;-51
2022/07/05 11:57:01;;;;;;;3.55;3.00;;;25.70;90.90;;;;;;5088657;28;20266;-52
2022/07/05 11:59:29;;;;;;;5.13;3.30;;;26.00;91.10;;;;;;5088069;28;20209;-51
2022/07/05 12:01:57;;;;;;;5.63;2.65;;;26.10;91.30;;;;;;5088344;28;20307;-51
2022/07/05 12:04:28;;;;;;;3.13;2.90;;;26.10;90.70;;;;;;5075987;28;20217;-51
2022/07/05 12:06:58;;;;;;;3.10;2.75;;;26.40;92.60;;;;;;5076774;28;20209;-51
2022/07/05 12:12:42;;;;;;;3.33;2.75;;;26.50;91.80;;;;;;5091726;28;20298;-51
2022/07/05 12:15:07;;;;;;;5.35;3.28;;;27.00;88.80;;;;;;5079095;28;20737;-51
2022/07/05 12:17:36;;;;;;;8.52;5.95;;;27.00;86.30;;;;;;5081482;28;20241;-51
2022/07/05 12:20:06;;;;;;;4.68;2.53;;;27.10;88.40;;;;;;5091744;28;20216;-52
2022/07/05 12:22:36;;;;;;;5.75;2.83;;;27.10;85.10;;;;;;5091286;28;20220;-51
2022/07/05 12:25:06;;;;;;;4.18;3.17;;;27.20;86.40;;;;;;5091488;28;20585;-52
2022/07/05 12:27:37;;;;;;;13.93;12.45;;;27.30;83.20;;;;;;5090264;28;20676;-52
2022/07/05 12:30:09;;;;;;;8.38;6.85;;;27.40;84.10;;;;;;5091434;28;20693;-52
2022/07/05 12:32:56;;;;;;;3.97;3.10;;;27.60;84.90;;;;;;5090510;28;20224;-52
2022/07/05 12:35:29;;;;;;;5.10;3.78;;;27.30;84.10;;;;;;5084024;28;20301;-52
2022/07/05 12:38:02;;;;;;;3.95;2.20;;;27.30;84.20;;;;;;5091055;28;20258;-52
2022/07/05 12:40:30;;;;;;;2.33;2.13;;;27.30;87.40;;;;;;5091954;28;20208;-51
2022/07/05 12:43:06;;;;;;;9.25;5.00;;;27.20;84.10;;;;;;5091055;28;20243;-51
2022/07/05 12:45:35;;;;;;;4.35;3.80;;;27.20;86.00;;;;;;5083311;28;20260;-52
2022/07/05 12:48:05;;;;;;;2.78;2.13;;;27.30;85.30;;;;;;5090262;28;20238;-52
2022/07/05 12:50:47;;;;;;;3.35;2.20;;;27.40;86.20;;;;;;5082262;28;20286;-52
2022/07/05 12:59:31;;;;;;;3.75;3.38;;;27.50;80.70;;;;;;5083765;28;20736;-51
2022/07/05 13:01:59;;;;;;;3.97;1.98;;;27.20;82.70;;;;;;5090867;28;20274;-52
2022/07/05 13:04:27;;;;;;;2.60;2.40;;;27.20;82.50;;;;;;5090863;28;20208;-51
2022/07/05 13:06:57;;;;;;;2.25;2.05;;;27.40;82.90;;;;;;5083029;28;20208;-52
2022/07/05 13:09:34;;;;;;;2.38;2.13;;;27.70;82.90;;;;;;5110307;28;20207;-52
2022/07/05 13:12:12;;;;;;;2.08;1.70;;;28.00;82.90;;;;;;5110558;28;20227;-52
2022/07/05 13:14:43;;;;;;;3.97;2.13;;;28.00;79.60;;;;;;5111167;28;20227;-52
2022/07/05 13:17:14;;;;;;;3.40;2.17;;;28.10;81.30;;;;;;5107101;28;20211;-52
2022/07/05 13:19:44;;;;;;;2.65;1.70;;;28.00;79.50;;;;;;5111143;28;20230;-52
2022/07/05 13:22:12;;;;;;;2.47;1.70;;;28.00;81.00;;;;;;5110408;28;20243;-52
2022/07/05 13:24:41;;;;;;;2.10;1.80;;;28.00;78.20;;;;;;5110532;28;20204;-52
2022/07/05 13:27:10;;;;;;;2.47;2.17;;;28.10;80.50;;;;;;5105549;28;20200;-52